Santa Cruz, CA

12:31 PM PDT on October 25, 2014 (GMT -0700)
San Jose International | Change Station
CLOSE
Current Station
Airport
Location: San Jose,
Elevation: 59 ft
Nearby Weather Stations

Elev 59 ft 37.36 °N, 121.92 °W | Updated 38 minutes ago

Mostly Cloudy
Mostly Cloudy
66 °F
Feels Like 66 °F
N
9
Wind Variable Wind from SE

Today
High -- | Low -- °F
--% Chance of Precip.
Yesterday
High -- | Low -- °F
Precip. -- in
7:25 AM 6:18 PM
Waxing Crescent, 4% visible
Pressure 30.07 in
Visibility 10.0 miles
Clouds Few 1500 ft
Mostly Cloudy 4500 ft
Dew Point 56 °F
Humidity 70%
Rainfall 0.11 in
Snow Depth Not available.
UV 3 out of 12
Pollen .10 out of 12
Air Quality Not available.
Flu Activity Sporadic
METAR KSJC 251853Z 13008KT 10SM FEW015 BKN045 19/13 A3007 RMK AO2 SLP183 T01890133

More Conditions Fewer Conditions

Pressure 30.07 in
Visibility 10.0 miles
Clouds Few 1500 ft
Mostly Cloudy 4500 ft
Dew Point 56 °F
Humidity 70%
Rainfall 0.11 in
Snow Depth Not available.
UV 3 out of 12
Pollen .10 out of 12
Air Quality Not available.
Flu Activity Sporadic
METAR KSJC 251853Z 13008KT 10SM FEW015 BKN045 19/13 A3007 RMK AO2 SLP183 T01890133

More Conditions Fewer Conditions

10-Day Weather Forecast

Almanac

Astronomy

Oct. 25, 2014 Rise Set
Actual Time 7:25 AM PDT 6:18 PM PDT
Civil Twilight 6:58 AM PDT 6:44 PM PDT
Nautical Twilight 6:28 AM PDT 7:15 PM PDT
Astronomical Twilight 5:58 AM PDT 7:45 PM PDT
Moon 9:07 AM PDT 7:47 PM PDT
Length of Visible Light 11h 46m
Length of Day
10h 53m
Tomorrow will be 2m 10s shorter.
Waxing Crescent, 4% of the Moon is Illuminated
Today
Waxing Crescent
Oct 30
First Quarter
Nov 6
Full
Nov 14
Last Quarter
Nov 22
New

Today's Extremes

State Highs State Lows

Community

WunderPhotos

Upload Photos

1,764,971 photos uploaded!

Nearby

Snow Depth

Station Depth Elevation
Leavitt Lake 0 in 9400 ft
Blue Lakes 0 in 8000 ft
Sonora Pass 0 in 8800 ft
Forestdale Creek 0 in 8029 ft
Leavitt Meadows 0 in 7200 ft

Earthquake Activity

City Distance Mag. Time & Date
Antioch, California 76 miles 2.7 6:42 AM PDT
2014-10-25
Deer Park, California 109 miles 2.8 6:40 AM PDT
2014-10-25
Coalinga, California 108 miles 2.5 11:01 PM PDT
2014-10-24
Minimum magnitude displayed is 2.5.

Coastal Water Temperatures

Place Temperature
Redwood City, CA 66.9 °F

Nearby Weather Stations